Airfield :
LOGIN :

Register | Disclaimer

   EN    FR    IT 

 










Legend :    VFR   Marginal VFR   IFR   Intensive IFR   Very Intensive IFR
Visi :
Ceiling :
>= 8 km
>= 3000ft
5 to 8 km
1000 to 3000 ft
1500m to 5 km
500 to 1000 ft
800 to 1500m
200 to 500 ft
< 800m
< 200 ft
Symbols :   Thunderstorms  Fog  Heavy snow  Heavy precipitations  Wind > 20 kt
SIGMETs :     Misc.  Thunderstorms  Icing  Turbulence  Mountain Waves  Volcanic Ashes







- Airport Elevation : 446 ft
- IATA code : VNE
- Download approach charts


LFRV - Vannes-Meucon

CURRENT METAR :
  • 251400Z AUTO 20010KT 140V240 9999 SCT027/// BKN032/// BKN038/// ///TCU 11/07 Q1001

EXPIRED METARs :
  • 251330Z AUTO 20010G23KT 170V250 9999 SCT032 BKN039 BKN056 10/06 Q1001
  • 251300Z AUTO 22011G22KT 160V260 9999 FEW028/// BKN034/// BKN041/// ///CB 14/06 Q1000
  • 251230Z AUTO 20013KT 160V250 9999 FEW022/// BKN028/// OVC058/// ///TCU 12/07 Q1000
  • 251200Z AUTO 21011KT 180V250 9999 BKN025/// BKN031/// OVC044/// ///TCU 12/06 Q1000
  • 251130Z AUTO 20013G23KT 160V250 9999 BKN024/// BKN031/// BKN047/// ///TCU 13/07 Q0999

TAF N/A
No reported NOTAMs for that airfield.



MET'MAP, your aeronautical weather chart ! - Copyright ORBIFLY December 2007 - Disclaimer

ORBIFLY MET'MAP TEAM :

Programming & Development : Alexandra Zaïnal
Concept & Development : Baudouin d'Aumeries
Co-Development & Prog : Marc-Olivier Méhu
Technical & hardware support : Manuel Goepfert

Contact : metmap@orbifly.com




SOURCES & CREDITS :

   NOAA